Time;durP1;ratioP1;P1;durP2;ratioP2;P2;SDS_P1;SDS_P2;PMS_P1;PMS_P2;Temp;Humidity;BMP_temperature;BMP_pressure;BME280_temperature;BME280_humidity;BME280_pressure;Samples;Min_cycle;Max_cycle;Signal;HPM_P1;HPM_P2
2020/12/27 00:00:49;;;;;;;29.73;10.15;;;8.50;75.10;;;;;;4937164;29;20050;-54
2020/12/27 00:03:15;;;;;;;26.20;9.73;;;8.50;75.10;;;;;;4936723;29;20445;-54
2020/12/27 00:05:43;;;;;;;21.75;8.27;;;8.50;75.20;;;;;;4936952;29;20082;-53
2020/12/27 00:08:08;;;;;;;26.17;8.27;;;8.50;75.20;;;;;;4937239;29;20115;-54
2020/12/27 00:10:34;;;;;;;14.80;6.45;;;8.50;75.20;;;;;;4936301;29;20307;-54
2020/12/27 00:12:59;;;;;;;23.63;7.30;;;8.50;75.10;;;;;;4936468;29;20046;-53
2020/12/27 00:15:25;;;;;;;22.17;8.10;;;8.50;75.20;;;;;;4937048;29;20082;-54
2020/12/27 00:17:51;;;;;;;18.35;6.63;;;8.50;75.20;;;;;;4937004;29;20461;-53
2020/12/27 00:20:16;;;;;;;11.77;5.00;;;8.50;75.20;;;;;;4936587;29;20385;-53
2020/12/27 00:22:42;;;;;;;15.85;5.53;;;8.50;75.20;;;;;;4936467;29;20389;-53
2020/12/27 00:25:07;;;;;;;15.30;6.07;;;8.50;75.00;;;;;;4935768;29;20024;-53
2020/12/27 00:27:33;;;;;;;9.65;4.47;;;8.50;75.20;;;;;;4936872;29;20032;-53
2020/12/27 00:29:59;;;;;;;11.80;4.90;;;8.50;75.10;;;;;;4936602;29;20028;-53
2020/12/27 00:32:28;;;;;;;14.95;5.15;;;8.50;75.00;;;;;;4936425;29;20339;-53
2020/12/27 00:34:54;;;;;;;9.87;4.67;;;8.50;75.00;;;;;;4936254;29;20027;-53
2020/12/27 00:37:20;;;;;;;8.88;5.28;;;8.50;75.00;;;;;;4936671;29;20733;-54
2020/12/27 00:39:47;;;;;;;10.43;4.95;;;8.50;75.20;;;;;;4934570;29;20153;-54
2020/12/27 00:42:13;;;;;;;13.65;5.53;;;8.50;75.10;;;;;;4936123;29;20023;-54
2020/12/27 00:44:38;;;;;;;13.13;5.90;;;8.50;75.10;;;;;;4936310;29;20032;-54
2020/12/27 00:47:04;;;;;;;11.05;5.55;;;8.50;75.00;;;;;;4936349;29;20470;-54
2020/12/27 00:49:29;;;;;;;16.55;6.03;;;8.50;75.10;;;;;;4936424;29;20059;-54
2020/12/27 00:51:55;;;;;;;11.15;5.85;;;8.50;75.00;;;;;;4934459;29;20366;-54
2020/12/27 00:54:20;;;;;;;7.88;4.43;;;8.50;75.10;;;;;;4934864;29;20036;-53
2020/12/27 00:56:50;;;;;;;9.38;4.50;;;8.50;75.10;;;;;;4935906;29;20102;-53
2020/12/27 00:59:17;;;;;;;12.07;4.95;;;8.50;75.10;;;;;;4935544;29;20058;-54
2020/12/27 01:01:42;;;;;;;9.45;4.38;;;8.40;75.10;;;;;;4935783;29;20482;-53
2020/12/27 01:04:08;;;;;;;9.65;4.50;;;8.50;75.20;;;;;;4935891;29;20078;-53
2020/12/27 01:06:34;;;;;;;12.95;4.72;;;8.40;75.20;;;;;;4936294;29;20095;-53
2020/12/27 01:09:00;;;;;;;10.13;4.82;;;8.40;75.00;;;;;;4935626;29;20349;-54
2020/12/27 01:11:26;;;;;;;10.55;4.28;;;8.40;75.10;;;;;;4935365;29;20024;-53
2020/12/27 01:13:52;;;;;;;8.88;4.53;;;8.40;75.00;;;;;;4935967;29;20046;-53
2020/12/27 01:16:21;;;;;;;10.93;5.22;;;8.40;75.00;;;;;;4950625;29;20078;-53
2020/12/27 01:18:47;;;;;;;8.68;4.63;;;8.40;74.90;;;;;;4935986;29;20345;-54
2020/12/27 01:21:32;;;;;;;10.07;3.92;;;8.40;75.00;;;;;;4935832;29;20052;-54
2020/12/27 01:23:59;;;;;;;7.85;4.53;;;8.40;74.90;;;;;;4936266;29;20050;-54
2020/12/27 01:26:32;;;;;;;7.20;4.25;;;8.40;74.90;;;;;;4934856;29;20039;-54
2020/12/27 01:28:58;;;;;;;8.48;4.88;;;8.40;74.80;;;;;;4935503;29;20367;-54
2020/12/27 01:31:24;;;;;;;13.50;5.07;;;8.40;74.80;;;;;;4935459;29;20529;-53
2020/12/27 01:33:50;;;;;;;13.82;5.72;;;8.40;74.90;;;;;;4935264;29;20075;-54
2020/12/27 01:36:30;;;;;;;8.20;4.53;;;8.40;74.80;;;;;;4935583;29;20027;-54
2020/12/27 01:38:57;;;;;;;8.27;4.70;;;8.40;74.90;;;;;;4936045;29;20361;-54
2020/12/27 01:41:23;;;;;;;10.48;4.50;;;8.40;74.90;;;;;;4934094;29;20031;-54
2020/12/27 01:44:10;;;;;;;7.93;4.30;;;8.40;74.80;;;;;;4935487;29;20035;-54
2020/12/27 01:46:43;;;;;;;9.65;4.45;;;8.40;74.80;;;;;;4935380;29;20059;-53
2020/12/27 01:49:10;;;;;;;11.20;5.20;;;8.40;74.80;;;;;;4935596;29;20031;-54
2020/12/27 01:51:36;;;;;;;13.13;5.10;;;8.40;74.80;;;;;;4935003;29;20039;-54
2020/12/27 01:54:03;;;;;;;6.60;4.50;;;8.40;74.70;;;;;;4935151;29;20039;-54
2020/12/27 01:56:34;;;;;;;8.55;4.78;;;8.40;74.70;;;;;;4934154;29;20126;-54
2020/12/27 01:59:05;;;;;;;8.05;4.22;;;8.40;74.70;;;;;;4934001;29;20031;-54
2020/12/27 02:01:32;;;;;;;9.10;4.15;;;8.40;74.70;;;;;;4934684;29;20031;-54
2020/12/27 02:04:02;;;;;;;10.82;4.25;;;8.40;74.80;;;;;;4935212;29;20024;-54
2020/12/27 02:06:28;;;;;;;10.13;4.50;;;8.40;74.80;;;;;;4935147;29;20453;-54
2020/12/27 02:08:54;;;;;;;8.75;4.00;;;8.40;74.90;;;;;;4935316;29;20393;-53
2020/12/27 02:11:21;;;;;;;9.75;4.45;;;8.40;74.80;;;;;;4933998;29;20027;-54
2020/12/27 02:13:54;;;;;;;8.10;4.50;;;8.40;74.70;;;;;;4935122;29;20397;-54
2020/12/27 02:16:25;;;;;;;9.45;4.30;;;8.40;74.70;;;;;;4935204;29;20110;-53
2020/12/27 02:18:55;;;;;;;7.43;3.72;;;8.40;74.80;;;;;;4935010;29;20354;-53
2020/12/27 02:21:22;;;;;;;6.10;3.20;;;8.40;74.80;;;;;;4934918;29;20512;-53
2020/12/27 02:23:48;;;;;;;5.07;3.20;;;8.40;75.70;;;;;;4935127;29;20028;-53
2020/12/27 02:26:14;;;;;;;6.47;3.85;;;8.40;75.00;;;;;;4934622;29;20438;-54
2020/12/27 02:28:40;;;;;;;7.28;3.40;;;8.30;75.00;;;;;;4935630;29;20028;-53
2020/12/27 02:31:06;;;;;;;7.38;3.15;;;8.30;74.90;;;;;;4934960;29;20043;-54
2020/12/27 02:33:32;;;;;;;8.45;4.10;;;8.30;74.80;;;;;;4934374;29;20453;-54
2020/12/27 02:35:57;;;;;;;9.93;3.58;;;8.40;74.90;;;;;;4935177;29;20034;-54
2020/12/27 02:38:23;;;;;;;6.63;3.50;;;8.30;74.80;;;;;;4935061;29;20114;-54
2020/12/27 02:40:49;;;;;;;10.50;4.22;;;8.40;74.90;;;;;;4933970;29;20031;-53
2020/12/27 02:43:19;;;;;;;6.65;3.60;;;8.40;74.90;;;;;;4950601;29;20035;-54
2020/12/27 02:45:45;;;;;;;14.70;4.50;;;8.30;75.60;;;;;;4954122;29;20361;-54
2020/12/27 02:48:11;;;;;;;10.18;4.25;;;8.30;74.80;;;;;;4953803;29;20058;-53
2020/12/27 02:50:37;;;;;;;12.57;3.90;;;8.30;74.90;;;;;;4954486;29;20449;-54
2020/12/27 02:53:03;;;;;;;9.73;4.15;;;8.30;74.70;;;;;;4941274;29;20361;-54
2020/12/27 02:55:30;;;;;;;7.63;3.92;;;8.30;74.60;;;;;;4933999;29;20496;-53
2020/12/27 02:57:56;;;;;;;10.50;4.95;;;8.30;74.80;;;;;;4934880;29;20024;-54
2020/12/27 03:00:22;;;;;;;12.27;5.35;;;8.30;74.80;;;;;;4934647;29;20036;-53
2020/12/27 03:02:48;;;;;;;7.75;3.75;;;8.30;74.70;;;;;;4934250;29;20075;-54
2020/12/27 03:05:13;;;;;;;8.43;4.57;;;8.30;74.60;;;;;;4934900;29;20023;-54
2020/12/27 03:07:40;;;;;;;8.95;4.40;;;8.30;74.70;;;;;;4935598;29;20086;-54
2020/12/27 03:10:05;;;;;;;9.18;3.55;;;8.40;74.90;;;;;;4938552;29;20028;-54
2020/12/27 03:12:31;;;;;;;9.40;3.90;;;8.30;74.80;;;;;;4936882;29;20050;-54
2020/12/27 03:14:57;;;;;;;8.48;3.88;;;8.30;74.70;;;;;;4938261;29;20054;-53
2020/12/27 03:17:22;;;;;;;6.47;3.28;;;8.30;74.80;;;;;;4938320;29;20467;-54
2020/12/27 03:19:48;;;;;;;8.85;2.85;;;8.30;74.80;;;;;;4957216;29;20119;-53
2020/12/27 03:22:13;;;;;;;5.90;3.13;;;8.30;75.00;;;;;;4956192;29;20106;-53
2020/12/27 03:24:39;;;;;;;6.30;2.83;;;8.30;75.60;;;;;;4957240;29;20414;-54
2020/12/27 03:27:05;;;;;;;5.28;2.83;;;8.30;74.70;;;;;;4936955;29;20126;-54
2020/12/27 03:29:30;;;;;;;5.70;3.53;;;8.30;74.80;;;;;;4937471;29;20024;-54
2020/12/27 03:31:56;;;;;;;3.78;2.60;;;8.30;74.70;;;;;;4937602;29;20047;-54
2020/12/27 03:34:22;;;;;;;5.88;3.08;;;8.30;74.80;;;;;;4938203;29;20464;-54
2020/12/27 03:36:47;;;;;;;3.25;2.53;;;8.30;75.00;;;;;;4937713;29;20020;-53
2020/12/27 03:39:13;;;;;;;5.03;2.20;;;8.30;74.80;;;;;;4937672;29;20027;-54
2020/12/27 03:41:40;;;;;;;6.25;3.08;;;8.30;74.80;;;;;;4936152;29;20090;-54
2020/12/27 03:44:05;;;;;;;4.90;3.15;;;8.30;74.80;;;;;;4920303;29;20030;-54
2020/12/27 03:46:31;;;;;;;6.78;2.83;;;8.30;74.80;;;;;;4937511;29;20032;-54
2020/12/27 03:48:56;;;;;;;2.83;1.90;;;8.30;74.80;;;;;;4937349;29;20067;-53
2020/12/27 03:51:22;;;;;;;3.38;2.13;;;8.30;74.90;;;;;;4937049;29;20031;-54
2020/12/27 03:53:48;;;;;;;6.28;3.47;;;8.30;75.60;;;;;;4935871;29;20032;-54
2020/12/27 03:56:14;;;;;;;6.50;3.10;;;8.30;74.90;;;;;;4936154;29;20032;-54
2020/12/27 03:58:39;;;;;;;4.93;2.45;;;8.30;75.00;;;;;;4935826;29;20071;-53
2020/12/27 04:01:05;;;;;;;6.07;2.63;;;8.30;74.90;;;;;;4934523;29;20297;-53
2020/12/27 04:03:31;;;;;;;4.78;2.42;;;8.30;74.80;;;;;;4935806;29;20030;-54
2020/12/27 04:05:56;;;;;;;4.40;2.40;;;8.30;74.80;;;;;;4936130;29;20020;-54
2020/12/27 04:08:22;;;;;;;2.70;2.20;;;8.30;75.00;;;;;;4936056;29;20102;-53
2020/12/27 04:10:47;;;;;;;6.07;3.10;;;8.30;74.90;;;;;;4935672;29;20500;-54
2020/12/27 04:13:13;;;;;;;6.13;2.95;;;8.30;74.80;;;;;;4935676;29;20389;-54
2020/12/27 04:15:39;;;;;;;7.07;3.92;;;8.30;74.80;;;;;;4937129;29;20032;-54
2020/12/27 04:18:04;;;;;;;6.80;2.90;;;8.30;74.90;;;;;;4936722;29;20032;-54
2020/12/27 04:20:30;;;;;;;6.07;2.88;;;8.30;74.80;;;;;;4936709;29;20426;-53
2020/12/27 04:22:56;;;;;;;6.20;2.88;;;8.20;74.70;;;;;;4936598;29;20024;-54
2020/12/27 04:25:21;;;;;;;6.55;2.42;;;8.20;74.70;;;;;;4936646;29;20118;-54
2020/12/27 04:27:47;;;;;;;5.65;2.63;;;8.20;74.80;;;;;;4935952;29;20028;-54
2020/12/27 04:30:13;;;;;;;4.65;2.58;;;8.30;74.80;;;;;;4936958;29;20410;-53
2020/12/27 04:32:38;;;;;;;4.35;2.63;;;8.20;74.90;;;;;;4936260;29;20039;-54
2020/12/27 04:35:05;;;;;;;4.10;2.63;;;8.30;74.80;;;;;;4936736;29;20027;-53
2020/12/27 04:37:30;;;;;;;6.18;2.65;;;8.30;74.80;;;;;;4936621;29;20036;-54
2020/12/27 04:39:56;;;;;;;6.28;2.63;;;8.30;74.60;;;;;;4936343;29;20027;-54
2020/12/27 04:42:24;;;;;;;5.88;2.85;;;8.20;74.70;;;;;;4935684;29;20027;-54
2020/12/27 04:44:49;;;;;;;5.53;3.13;;;8.20;74.80;;;;;;4936413;29;20040;-54
2020/12/27 04:47:15;;;;;;;6.15;2.50;;;8.20;74.60;;;;;;4936522;29;20075;-54
2020/12/27 04:49:42;;;;;;;4.38;2.55;;;8.20;74.90;;;;;;4936297;29;20024;-54
2020/12/27 04:52:11;;;;;;;4.18;2.65;;;8.30;74.80;;;;;;4935877;29;20023;-54
2020/12/27 04:54:37;;;;;;;3.50;2.20;;;8.20;74.90;;;;;;4936015;29;20027;-54
2020/12/27 04:57:03;;;;;;;2.63;1.60;;;8.20;74.90;;;;;;4935412;29;20028;-54
2020/12/27 04:59:29;;;;;;;1.95;1.67;;;8.20;74.70;;;;;;4936358;29;20038;-54
2020/12/27 05:01:55;;;;;;;3.53;2.03;;;8.20;74.80;;;;;;4936002;29;20438;-53
2020/12/27 05:04:26;;;;;;;9.60;1.95;;;8.20;74.90;;;;;;4936148;29;20066;-53
2020/12/27 05:06:55;;;;;;;;;;;8.20;74.80;;;;;;4936473;29;20334;-53
2020/12/27 05:09:27;;;;;;;4.22;2.60;;;8.20;74.80;;;;;;4936068;29;19911;-53
2020/12/27 05:11:53;;;;;;;5.03;2.95;;;8.20;74.90;;;;;;4934680;29;20039;-53
2020/12/27 05:14:27;;;;;;;5.50;2.70;;;8.20;74.60;;;;;;4935956;29;20350;-53
2020/12/27 05:16:57;;;;;;;4.35;3.00;;;8.20;74.60;;;;;;4935913;29;20084;-53
2020/12/27 05:19:24;;;;;;;4.68;2.97;;;8.20;74.50;;;;;;4935891;29;20118;-53
2020/12/27 05:21:49;;;;;;;4.82;2.75;;;8.20;74.70;;;;;;4935384;29;20032;-53
2020/12/27 05:24:19;;;;;;;2.80;1.83;;;8.20;74.50;;;;;;4935857;29;20361;-53
2020/12/27 05:26:45;;;;;;;4.80;2.58;;;8.20;74.50;;;;;;4935400;29;20074;-53
2020/12/27 05:29:11;;;;;;;6.80;2.03;;;8.20;74.50;;;;;;4935525;29;20034;-53
2020/12/27 05:31:38;;;;;;;3.67;1.90;;;8.30;74.60;;;;;;4934649;29;20023;-53
2020/12/27 05:34:05;;;;;;;4.50;2.22;;;8.20;74.50;;;;;;4935310;29;20041;-53
2020/12/27 05:36:31;;;;;;;4.25;2.20;;;8.20;74.50;;;;;;4935576;29;20031;-53
2020/12/27 05:38:57;;;;;;;5.00;2.42;;;8.20;74.50;;;;;;4935521;29;20027;-53
2020/12/27 05:41:27;;;;;;;3.65;2.15;;;8.20;74.50;;;;;;4935245;29;20058;-54
2020/12/27 05:44:02;;;;;;;7.45;3.13;;;8.30;74.50;;;;;;4934731;29;20050;-53
2020/12/27 05:46:29;;;;;;;2.40;1.92;;;8.30;74.40;;;;;;4935427;29;20536;-53
2020/12/27 05:48:56;;;;;;;5.97;2.65;;;8.30;74.50;;;;;;4935498;29;20039;-53
2020/12/27 05:51:22;;;;;;;3.72;2.30;;;8.30;74.50;;;;;;4935326;29;20094;-53
2020/12/27 05:53:52;;;;;;;4.50;2.80;;;8.20;74.60;;;;;;4935247;29;20496;-53
2020/12/27 05:56:26;;;;;;;6.75;2.97;;;8.30;74.50;;;;;;4935512;29;20401;-53
2020/12/27 05:58:54;;;;;;;8.07;2.97;;;8.20;74.50;;;;;;4934645;29;20035;-53
2020/12/27 06:01:24;;;;;;;4.57;2.38;;;8.30;74.40;;;;;;4933637;29;20040;-53
2020/12/27 06:03:57;;;;;;;3.17;2.00;;;8.30;74.60;;;;;;4935303;29;20036;-53
2020/12/27 06:07:01;;;;;;;5.30;2.20;;;8.20;74.50;;;;;;4935481;29;20024;-53
2020/12/27 06:09:39;;;;;;;2.65;2.13;;;8.20;74.50;;;;;;4923136;29;20036;-53
2020/12/27 06:12:11;;;;;;;5.05;2.42;;;8.30;74.60;;;;;;4934854;29;20032;-54
2020/12/27 06:14:38;;;;;;;4.43;2.08;;;8.30;74.40;;;;;;4934905;29;20457;-53
2020/12/27 06:17:26;;;;;;;3.97;2.63;;;8.20;74.40;;;;;;4935299;29;20023;-53
2020/12/27 06:20:07;;;;;;;1.30;1.13;;;8.20;74.30;;;;;;4934929;29;20353;-53
2020/12/27 06:22:33;;;;;;;4.25;2.25;;;8.20;74.60;;;;;;4935143;29;20028;-53
2020/12/27 06:25:01;;;;;;;3.83;2.10;;;8.20;74.40;;;;;;4935201;29;20027;-54
2020/12/27 06:27:30;;;;;;;5.65;2.05;;;8.20;74.40;;;;;;4934455;29;20055;-53
2020/12/27 06:30:09;;;;;;;2.90;1.93;;;8.20;74.40;;;;;;4934900;29;20020;-53
2020/12/27 06:32:48;;;;;;;3.28;2.00;;;8.20;74.40;;;;;;4934665;29;20492;-53
2020/12/27 06:35:14;;;;;;;0.77;0.77;;;8.20;74.60;;;;;;4935286;29;20075;-53
2020/12/27 06:37:45;;;;;;;2.63;1.45;;;8.20;74.30;;;;;;4934899;29;20064;-53
2020/12/27 06:40:12;;;;;;;0.85;0.68;;;8.20;74.00;;;;;;4917832;29;20038;-54
2020/12/27 06:42:38;;;;;;;11.10;1.65;;;8.20;74.50;;;;;;4935942;29;20043;-53
2020/12/27 06:45:06;;;;;;;3.60;2.40;;;8.20;74.30;;;;;;4921180;29;20406;-53
2020/12/27 06:47:51;;;;;;;5.40;1.92;;;8.20;74.50;;;;;;4938850;29;20032;-53
2020/12/27 06:50:19;;;;;;;2.35;1.55;;;8.20;74.50;;;;;;4938470;29;20027;-53
2020/12/27 06:52:45;;;;;;;2.22;1.80;;;8.20;74.30;;;;;;4938166;29;20071;-54
2020/12/27 06:55:11;;;;;;;3.35;2.20;;;8.20;74.30;;;;;;4938332;29;20464;-53
2020/12/27 06:57:44;;;;;;;3.65;1.95;;;8.20;74.30;;;;;;4938080;29;20031;-53
2020/12/27 07:00:19;;;;;;;2.30;1.60;;;8.20;74.50;;;;;;4938046;29;20047;-53
2020/12/27 07:02:45;;;;;;;4.45;1.92;;;8.20;74.50;;;;;;4938089;29;20020;-53
2020/12/27 07:05:30;;;;;;;3.95;2.10;;;8.20;74.50;;;;;;4938060;29;20107;-53
2020/12/27 07:07:56;;;;;;;3.13;2.28;;;8.20;74.40;;;;;;4937990;29;20190;-53
2020/12/27 07:10:25;;;;;;;1.80;1.50;;;8.20;74.30;;;;;;4938154;29;20027;-53
2020/12/27 07:12:51;;;;;;;0.57;0.57;;;8.20;74.50;;;;;;4937148;29;20043;-53
2020/12/27 07:15:18;;;;;;;4.03;2.20;;;8.20;74.00;;;;;;4937627;29;20122;-53
2020/12/27 07:17:44;;;;;;;2.10;1.40;;;8.20;74.40;;;;;;4937782;29;20020;-53
2020/12/27 07:20:17;;;;;;;3.65;2.25;;;8.20;74.50;;;;;;4937535;29;20055;-53
2020/12/27 07:22:43;;;;;;;4.32;2.28;;;8.20;74.40;;;;;;4935194;29;20050;-53
2020/12/27 07:25:14;;;;;;;2.95;1.55;;;8.20;74.40;;;;;;4937657;29;20358;-53
2020/12/27 07:27:41;;;;;;;3.08;1.92;;;8.20;74.40;;;;;;4935468;29;20035;-53
2020/12/27 07:30:07;;;;;;;4.38;1.98;;;8.20;74.20;;;;;;4935990;29;20032;-53
2020/12/27 07:32:48;;;;;;;2.40;1.70;;;8.20;74.40;;;;;;4936828;29;20035;-53
2020/12/27 07:35:14;;;;;;;3.83;2.30;;;8.20;74.40;;;;;;4937524;29;20020;-53
2020/12/27 07:37:44;;;;;;;3.67;1.58;;;8.20;74.30;;;;;;4937611;29;20038;-53
2020/12/27 07:40:12;;;;;;;2.55;1.77;;;8.20;74.30;;;;;;4937422;29;20110;-53
2020/12/27 07:42:39;;;;;;;3.97;1.63;;;8.20;74.30;;;;;;4936920;29;20031;-53
2020/12/27 07:45:13;;;;;;;5.07;2.00;;;8.20;74.40;;;;;;4936845;29;20030;-53
2020/12/27 07:47:42;;;;;;;3.95;1.85;;;8.20;74.50;;;;;;4937372;29;20338;-53
2020/12/27 07:50:12;;;;;;;1.30;0.90;;;8.20;74.50;;;;;;4937392;29;20020;-53
2020/12/27 07:52:44;;;;;;;2.83;2.20;;;8.20;74.50;;;;;;4935939;29;20169;-53
2020/12/27 07:55:09;;;;;;;2.85;1.88;;;8.20;74.30;;;;;;4934173;29;20032;-53
2020/12/27 07:57:36;;;;;;;1.48;1.02;;;8.20;74.60;;;;;;4936295;29;20119;-53
2020/12/27 08:00:06;;;;;;;3.40;2.25;;;8.20;74.30;;;;;;4936434;29;20039;-54
2020/12/27 08:02:32;;;;;;;2.63;2.03;;;8.20;74.50;;;;;;4936840;29;20382;-53
2020/12/27 08:05:01;;;;;;;2.47;1.85;;;8.20;74.40;;;;;;4937310;29;20078;-53
2020/12/27 08:07:27;;;;;;;4.43;2.20;;;8.20;74.40;;;;;;4936796;29;20036;-53
2020/12/27 08:09:53;;;;;;;4.22;2.03;;;8.30;74.30;;;;;;4935853;29;20046;-54
2020/12/27 08:12:19;;;;;;;2.17;1.17;;;8.20;75.10;;;;;;4944723;29;20039;-53
2020/12/27 08:14:44;;;;;;;3.28;1.88;;;8.30;74.30;;;;;;4943420;29;20036;-53
2020/12/27 08:17:16;;;;;;;3.03;2.05;;;8.20;74.30;;;;;;4951441;29;20027;-53
2020/12/27 08:19:42;;;;;;;2.90;2.03;;;8.30;74.50;;;;;;4952784;29;20350;-53
2020/12/27 08:22:08;;;;;;;6.53;2.40;;;8.30;74.40;;;;;;4951945;29;20012;-54
2020/12/27 08:24:34;;;;;;;3.53;2.10;;;8.30;74.40;;;;;;4953460;29;20034;-54
2020/12/27 08:27:00;;;;;;;2.25;1.45;;;8.30;74.30;;;;;;4953739;29;20069;-53
2020/12/27 08:29:26;;;;;;;1.40;1.30;;;8.30;74.30;;;;;;4954122;29;20070;-53
2020/12/27 08:32:04;;;;;;;5.70;2.22;;;8.30;74.40;;;;;;4954169;29;20067;-53
2020/12/27 08:34:30;;;;;;;3.22;1.55;;;8.30;74.40;;;;;;4954184;29;20066;-54
2020/12/27 08:36:58;;;;;;;2.47;1.60;;;8.30;74.30;;;;;;4953817;29;20453;-53
2020/12/27 08:39:32;;;;;;;2.95;1.85;;;8.30;74.40;;;;;;4953551;29;20031;-54
2020/12/27 08:42:01;;;;;;;5.20;2.00;;;8.30;74.40;;;;;;4953922;29;20051;-53
2020/12/27 08:45:00;;;;;;;1.55;1.20;;;8.40;74.50;;;;;;4953968;29;20041;-53
2020/12/27 08:47:49;;;;;;;2.42;1.70;;;8.40;74.50;;;;;;4951917;29;20106;-53
2020/12/27 08:50:24;;;;;;;4.00;1.60;;;8.30;74.40;;;;;;4930394;29;20039;-53
2020/12/27 08:52:56;;;;;;;4.30;1.83;;;8.30;74.40;;;;;;4945209;29;20116;-54
2020/12/27 08:55:26;;;;;;;1.63;1.45;;;8.30;74.60;;;;;;4950946;29;20074;-53
2020/12/27 08:57:52;;;;;;;3.15;1.98;;;8.30;74.60;;;;;;4953543;29;20078;-54
2020/12/27 09:00:19;;;;;;;1.45;1.30;;;8.30;74.30;;;;;;4953340;29;20106;-50
2020/12/27 09:02:55;;;;;;;4.25;2.13;;;8.30;74.60;;;;;;5587947;23;20088;-48
2020/12/27 09:05:25;;;;;;;2.90;1.80;;;8.20;70.90;;;;;;4972935;28;20102;-48
2020/12/27 09:07:52;;;;;;;2.00;0.85;;;8.10;73.80;;;;;;4973200;28;20073;-48
2020/12/27 09:10:27;;;;;;;2.10;1.27;;;8.00;74.60;;;;;;4972945;28;20464;-48
2020/12/27 09:13:03;;;;;;;3.85;2.20;;;8.00;74.60;;;;;;4963872;28;20149;-48
2020/12/27 09:15:30;;;;;;;10.70;1.92;;;8.00;74.40;;;;;;4960874;28;20031;-48
2020/12/27 09:17:57;;;;;;;5.03;1.65;;;8.10;74.60;;;;;;4961411;28;20027;-48
2020/12/27 09:20:23;;;;;;;2.90;2.13;;;8.10;74.40;;;;;;4972372;28;20030;-48
2020/12/27 09:22:50;;;;;;;2.47;1.55;;;8.10;74.20;;;;;;4972045;28;20404;-48
2020/12/27 09:25:18;;;;;;;1.05;0.73;;;8.10;74.20;;;;;;4972636;28;20491;-49
2020/12/27 09:27:45;;;;;;;6.25;2.13;;;8.10;74.00;;;;;;4969538;28;20038;-48
2020/12/27 09:30:17;;;;;;;2.20;1.45;;;8.10;74.00;;;;;;4940401;28;20027;-48
2020/12/27 09:32:43;;;;;;;1.70;1.13;;;8.10;73.90;;;;;;4951949;28;20030;-48
2020/12/27 09:35:17;;;;;;;4.15;2.53;;;8.10;73.90;;;;;;4951671;29;20058;-48
2020/12/27 09:37:42;;;;;;;2.65;1.40;;;8.10;73.70;;;;;;4944840;28;20441;-49
2020/12/27 09:40:08;;;;;;;2.38;1.58;;;8.10;73.80;;;;;;4957811;28;20033;-49
2020/12/27 09:42:34;;;;;;;4.35;2.00;;;8.10;73.90;;;;;;4952004;29;20027;-48
2020/12/27 09:45:19;;;;;;;2.80;2.03;;;8.10;73.70;;;;;;4951519;28;20035;-48
2020/12/27 09:47:52;;;;;;;5.30;2.00;;;8.10;73.70;;;;;;4965595;28;20073;-48
2020/12/27 09:50:31;;;;;;;1.30;0.82;;;8.10;73.60;;;;;;4972213;28;20031;-49
2020/12/27 09:52:58;;;;;;;3.25;1.70;;;8.10;73.70;;;;;;4960575;28;20035;-49
2020/12/27 09:55:24;;;;;;;2.92;1.60;;;8.10;73.70;;;;;;4954312;29;20035;-49
2020/12/27 09:57:50;;;;;;;4.22;1.98;;;8.10;73.50;;;;;;4954197;29;20079;-49
2020/12/27 10:00:16;;;;;;;3.35;1.80;;;8.10;73.50;;;;;;4954378;29;20261;-48
2020/12/27 10:02:41;;;;;;;2.30;1.30;;;8.10;73.30;;;;;;4948271;29;20036;-49
2020/12/27 10:05:07;;;;;;;3.70;1.88;;;8.10;73.50;;;;;;4943004;28;20034;-49
2020/12/27 10:07:33;;;;;;;7.43;2.67;;;8.10;73.70;;;;;;4969579;28;20023;-49
2020/12/27 10:09:59;;;;;;;5.28;1.70;;;8.10;73.90;;;;;;4972119;28;20034;-49
2020/12/27 10:12:25;;;;;;;4.75;1.83;;;8.10;73.90;;;;;;4971816;28;20027;-49
2020/12/27 10:14:50;;;;;;;1.50;1.20;;;8.10;73.80;;;;;;4971732;28;20045;-49
2020/12/27 10:17:16;;;;;;;2.75;1.60;;;8.10;73.60;;;;;;4969577;28;20133;-49
2020/12/27 10:19:42;;;;;;;5.78;2.20;;;8.00;73.80;;;;;;4975595;28;20027;-49
2020/12/27 10:22:08;;;;;;;8.15;2.47;;;8.00;73.50;;;;;;4975808;28;20066;-49
2020/12/27 10:24:33;;;;;;;3.63;1.73;;;8.10;73.60;;;;;;4810317;28;20055;-49
2020/12/27 10:27:01;;;;;;;5.25;2.25;;;8.00;73.60;;;;;;4907890;28;20032;-49
2020/12/27 10:29:27;;;;;;;0.65;0.65;;;8.10;73.50;;;;;;4845462;28;20512;-49
2020/12/27 10:31:57;;;;;;;2.40;1.98;;;8.10;73.20;;;;;;4945324;28;20106;-49
2020/12/27 10:34:23;;;;;;;;;;;8.10;73.50;;;;;;4862946;28;20035;-49
2020/12/27 10:37:18;;;;;;;4.60;2.97;;;8.00;73.70;;;;;;4916323;28;20255;-49
2020/12/27 10:40:11;;;;;;;4.18;2.60;;;8.10;73.50;;;;;;4853212;28;20486;-49
2020/12/27 10:42:37;;;;;;;3.00;1.83;;;8.00;73.40;;;;;;4962733;28;20114;-49
2020/12/27 10:45:03;;;;;;;2.42;1.42;;;8.10;73.50;;;;;;4969938;28;20097;-49
2020/12/27 10:47:28;;;;;;;5.85;1.80;;;8.10;73.50;;;;;;4971298;28;20592;-50
2020/12/27 10:49:54;;;;;;;0.60;0.60;;;8.10;73.50;;;;;;4962515;28;20121;-50
2020/12/27 10:52:19;;;;;;;4.35;2.25;;;8.10;73.00;;;;;;4952301;28;20019;-50
2020/12/27 10:54:45;;;;;;;3.35;1.90;;;8.10;73.30;;;;;;4973777;28;20035;-49
2020/12/27 10:57:10;;;;;;;2.17;1.92;;;8.10;73.50;;;;;;4974362;28;20035;-50
2020/12/27 10:59:36;;;;;;;2.00;1.60;;;8.00;73.30;;;;;;4973257;28;20026;-49
2020/12/27 11:02:02;;;;;;;4.03;1.85;;;8.10;73.40;;;;;;4972576;28;20471;-50
2020/12/27 11:04:27;;;;;;;3.65;1.92;;;8.10;73.40;;;;;;4962373;28;20114;-49
2020/12/27 11:06:53;;;;;;;0.73;0.63;;;8.10;73.40;;;;;;4976248;28;20514;-49
2020/12/27 11:09:18;;;;;;;1.00;0.80;;;8.10;73.30;;;;;;4976417;28;20034;-49
2020/12/27 11:11:44;;;;;;;0.80;0.80;;;8.10;72.20;;;;;;4965884;28;20034;-50
2020/12/27 11:14:10;;;;;;;1.05;1.02;;;8.10;73.10;;;;;;4953151;29;20280;-49
2020/12/27 11:16:36;;;;;;;0.60;0.60;;;8.10;72.30;;;;;;4957153;29;20119;-49
2020/12/27 11:19:02;;;;;;;1.58;1.10;;;8.10;73.00;;;;;;4956736;29;20027;-49
2020/12/27 11:21:28;;;;;;;2.22;1.40;;;8.00;72.60;;;;;;4957163;29;20098;-49
2020/12/27 11:23:54;;;;;;;3.65;2.05;;;8.10;72.00;;;;;;4956541;29;20024;-50
2020/12/27 11:26:20;;;;;;;3.97;1.52;;;8.10;73.20;;;;;;4957067;29;20050;-49
2020/12/27 11:28:46;;;;;;;2.35;1.60;;;8.00;71.80;;;;;;4955252;28;20089;-49
2020/12/27 11:31:15;;;;;;;2.17;1.38;;;8.00;72.30;;;;;;4956446;29;20038;-49
2020/12/27 11:33:40;;;;;;;1.90;1.30;;;8.00;72.80;;;;;;4956569;29;20174;-50
2020/12/27 11:36:06;;;;;;;0.47;0.47;;;8.00;72.80;;;;;;4956749;29;20054;-49
2020/12/27 11:38:32;;;;;;;0.55;0.52;;;8.00;73.10;;;;;;4956863;29;20110;-49
2020/12/27 11:40:57;;;;;;;1.17;1.08;;;8.00;72.30;;;;;;4956753;29;20039;-49
2020/12/27 11:43:23;;;;;;;5.20;2.40;;;8.00;72.00;;;;;;4956280;29;20023;-49
2020/12/27 11:45:48;;;;;;;4.93;2.60;;;8.00;72.60;;;;;;4955728;29;20035;-49
2020/12/27 11:48:14;;;;;;;2.53;1.58;;;8.00;72.60;;;;;;4955806;29;20345;-50
2020/12/27 11:50:40;;;;;;;0.95;0.82;;;7.90;73.10;;;;;;4954728;29;20248;-49
2020/12/27 11:53:05;;;;;;;5.57;2.40;;;7.90;73.30;;;;;;4955198;29;20070;-49
2020/12/27 11:55:31;;;;;;;7.13;1.70;;;7.90;72.40;;;;;;4956315;29;20049;-49
2020/12/27 11:57:56;;;;;;;0.45;0.45;;;7.90;72.90;;;;;;4956097;29;20031;-49
2020/12/27 12:00:22;;;;;;;0.98;0.88;;;7.90;73.10;;;;;;4955411;29;20027;-49
2020/12/27 12:02:48;;;;;;;2.45;1.65;;;7.90;72.40;;;;;;4954410;28;20031;-49
2020/12/27 12:05:13;;;;;;;0.90;0.82;;;7.90;73.00;;;;;;4956429;29;20432;-49
2020/12/27 12:07:39;;;;;;;0.50;0.50;;;7.90;72.20;;;;;;4956665;29;20385;-49
2020/12/27 12:10:04;;;;;;;3.55;2.05;;;7.90;72.70;;;;;;4956035;28;20042;-49
2020/12/27 12:12:30;;;;;;;4.72;1.95;;;7.90;72.70;;;;;;4955427;29;20118;-49
2020/12/27 12:14:55;;;;;;;1.73;1.25;;;7.90;72.50;;;;;;4955993;29;20040;-49
2020/12/27 12:17:21;;;;;;;6.25;2.55;;;7.90;72.50;;;;;;4956013;29;20398;-50
2020/12/27 12:19:47;;;;;;;4.85;2.22;;;7.90;72.80;;;;;;4954185;29;20037;-50
2020/12/27 12:22:13;;;;;;;1.08;1.05;;;7.90;72.60;;;;;;4954881;29;20023;-49
2020/12/27 12:24:38;;;;;;;1.52;1.20;;;7.90;72.30;;;;;;4938246;28;20027;-49
2020/12/27 12:27:04;;;;;;;5.15;2.63;;;7.90;72.50;;;;;;4956217;29;20449;-49
2020/12/27 12:29:29;;;;;;;1.92;0.80;;;7.90;72.20;;;;;;4955750;29;20035;-49
2020/12/27 12:31:55;;;;;;;5.55;2.47;;;7.90;72.40;;;;;;4955816;29;20020;-49
2020/12/27 12:34:21;;;;;;;3.30;2.20;;;7.90;72.40;;;;;;4954916;29;20035;-49
2020/12/27 12:36:49;;;;;;;2.63;1.65;;;7.90;72.50;;;;;;4955610;28;20372;-49
2020/12/27 12:39:15;;;;;;;6.53;2.25;;;7.90;72.00;;;;;;4958980;28;20046;-49
2020/12/27 12:41:41;;;;;;;5.90;2.42;;;7.90;72.00;;;;;;4974046;28;20022;-49
2020/12/27 12:44:06;;;;;;;3.45;2.40;;;7.90;71.00;;;;;;4964661;28;20394;-49
2020/12/27 12:46:32;;;;;;;2.40;1.00;;;7.90;70.90;;;;;;4960861;28;20027;-49
2020/12/27 12:48:58;;;;;;;5.07;2.17;;;7.80;72.00;;;;;;4974643;28;20066;-49
2020/12/27 12:51:24;;;;;;;3.78;1.80;;;7.90;71.90;;;;;;4974535;28;20343;-49
2020/12/27 12:53:50;;;;;;;2.13;1.45;;;7.90;71.80;;;;;;4970805;28;20126;-49
2020/12/27 12:56:16;;;;;;;0.95;0.95;;;7.80;71.70;;;;;;4974328;28;20090;-50
2020/12/27 12:58:41;;;;;;;1.90;1.27;;;7.80;71.80;;;;;;4974692;28;20077;-49